Terminal Aerodrome Forecast
Issued by NWS

Home | Current Version | Previous Version | Graphics & Text | Print | Product List | Glossary On
Versions: 1 2 3 4 5 6 7 8 9 10 11 12 13 14 15 16 17
000
FTUS43 KBIS 280529
TAFDIK
TAF
KDIK 280529Z 2806/2906 32012KT P6SM VCSH BKN090
     FM280800 32009KT P6SM SCT100
     FM282200 29007KT P6SM FEW090 SCT200
     FM290200 19005KT P6SM FEW080 SCT200
     FM290500 18007KT P6SM BKN050 BKN120=

USA.gov is the U.S. government's official web portal to all federal, state and local government web resources and services.